sensor_id;sensor_type;location;lat;lon;timestamp;pressure;altitude;pressure_sealevel;temperature;humidity
9419;BME280;4748;50.802;7.132;2023-02-03T00:00:53;102050.75;;;10.26;100.00
9419;BME280;4748;50.802;7.132;2023-02-03T00:03:18;102043.56;;;10.26;100.00
9419;BME280;4748;50.802;7.132;2023-02-03T00:05:44;102044.41;;;10.27;100.00
9419;BME280;4748;50.802;7.132;2023-02-03T00:08:11;102038.69;;;10.30;100.00
9419;BME280;4748;50.802;7.132;2023-02-03T00:10:38;102030.28;;;10.33;100.00
9419;BME280;4748;50.802;7.132;2023-02-03T00:13:04;102019.66;;;10.25;100.00
9419;BME280;4748;50.802;7.132;2023-02-03T00:15:29;102012.19;;;10.20;100.00
9419;BME280;4748;50.802;7.132;2023-02-03T00:17:55;102015.22;;;10.18;100.00
9419;BME280;4748;50.802;7.132;2023-02-03T00:20:20;102002.66;;;10.18;100.00
9419;BME280;4748;50.802;7.132;2023-02-03T00:22:46;101992.34;;;10.15;100.00
9419;BME280;4748;50.802;7.132;2023-02-03T00:25:12;101991.78;;;10.19;100.00
9419;BME280;4748;50.802;7.132;2023-02-03T00:27:37;101988.91;;;10.21;100.00
9419;BME280;4748;50.802;7.132;2023-02-03T00:30:03;101982.28;;;10.17;100.00
9419;BME280;4748;50.802;7.132;2023-02-03T00:32:28;101992.63;;;10.20;100.00
9419;BME280;4748;50.802;7.132;2023-02-03T00:34:54;101995.56;;;10.25;100.00
9419;BME280;4748;50.802;7.132;2023-02-03T00:37:20;101989.66;;;10.15;100.00
9419;BME280;4748;50.802;7.132;2023-02-03T00:39:47;101991.78;;;10.19;100.00
9419;BME280;4748;50.802;7.132;2023-02-03T00:42:12;101969.19;;;10.22;100.00
9419;BME280;4748;50.802;7.132;2023-02-03T00:44:37;101971.47;;;10.25;100.00
9419;BME280;4748;50.802;7.132;2023-02-03T00:47:03;101977.19;;;10.22;100.00
9419;BME280;4748;50.802;7.132;2023-02-03T00:49:28;101976.19;;;10.23;100.00
9419;BME280;4748;50.802;7.132;2023-02-03T00:51:53;101968.81;;;10.25;100.00
9419;BME280;4748;50.802;7.132;2023-02-03T00:54:19;101964.13;;;10.27;100.00
9419;BME280;4748;50.802;7.132;2023-02-03T00:56:44;101962.63;;;10.24;100.00
9419;BME280;4748;50.802;7.132;2023-02-03T00:59:09;101970.47;;;10.26;100.00
9419;BME280;4748;50.802;7.132;2023-02-03T01:01:35;101969.91;;;10.30;100.00
9419;BME280;4748;50.802;7.132;2023-02-03T01:04:01;101964.38;;;10.32;100.00
9419;BME280;4748;50.802;7.132;2023-02-03T01:06:27;101948.69;;;10.29;100.00
9419;BME280;4748;50.802;7.132;2023-02-03T01:08:53;101947.69;;;10.30;100.00
9419;BME280;4748;50.802;7.132;2023-02-03T01:11:21;101962.88;;;10.29;100.00
9419;BME280;4748;50.802;7.132;2023-02-03T01:13:47;101972.41;;;10.32;100.00
9419;BME280;4748;50.802;7.132;2023-02-03T01:16:14;101962.88;;;10.29;100.00
9419;BME280;4748;50.802;7.132;2023-02-03T01:18:40;101965.19;;;10.32;100.00
9419;BME280;4748;50.802;7.132;2023-02-03T01:21:12;101956.53;;;10.30;100.00
9419;BME280;4748;50.802;7.132;2023-02-03T01:23:38;101953.84;;;10.30;100.00
9419;BME280;4748;50.802;7.132;2023-02-03T01:26:09;101951.63;;;10.34;100.00
9419;BME280;4748;50.802;7.132;2023-02-03T01:28:35;101964.38;;;10.32;100.00
9419;BME280;4748;50.802;7.132;2023-02-03T01:31:10;101958.38;;;10.30;100.00
9419;BME280;4748;50.802;7.132;2023-02-03T01:33:35;101970.00;;;10.37;100.00
9419;BME280;4748;50.802;7.132;2023-02-03T01:36:01;101979.44;;;10.33;100.00
9419;BME280;4748;50.802;7.132;2023-02-03T01:38:26;102005.34;;;10.32;100.00
9419;BME280;4748;50.802;7.132;2023-02-03T01:40:52;101997.31;;;10.32;100.00
9419;BME280;4748;50.802;7.132;2023-02-03T01:43:31;102005.34;;;10.32;100.00
9419;BME280;4748;50.802;7.132;2023-02-03T01:45:58;102003.31;;;10.34;100.00
9419;BME280;4748;50.802;7.132;2023-02-03T01:48:24;102002.66;;;10.32;100.00
9419;BME280;4748;50.802;7.132;2023-02-03T01:50:50;102006.19;;;10.33;100.00
9419;BME280;4748;50.802;7.132;2023-02-03T01:53:15;101993.06;;;10.38;100.00
9419;BME280;4748;50.802;7.132;2023-02-03T01:55:44;101998.41;;;10.38;100.00
9419;BME280;4748;50.802;7.132;2023-02-03T01:58:21;102009.50;;;10.35;100.00
9419;BME280;4748;50.802;7.132;2023-02-03T02:00:49;102020.38;;;10.33;100.00
9419;BME280;4748;50.802;7.132;2023-02-03T02:03:14;102010.78;;;10.39;100.00
9419;BME280;4748;50.802;7.132;2023-02-03T02:05:49;102015.84;;;10.34;100.00
9419;BME280;4748;50.802;7.132;2023-02-03T02:08:18;102032.59;;;10.36;100.00
9419;BME280;4748;50.802;7.132;2023-02-03T02:10:46;102031.56;;;10.37;100.00
9419;BME280;4748;50.802;7.132;2023-02-03T02:13:13;102034.44;;;10.35;100.00
9419;BME280;4748;50.802;7.132;2023-02-03T02:15:49;102033.03;;;10.39;100.00
9419;BME280;4748;50.802;7.132;2023-02-03T02:21:09;101993.06;;;10.38;100.00
9419;BME280;4748;50.802;7.132;2023-02-03T02:32:23;102003.78;;;10.38;100.00
9419;BME280;4748;50.802;7.132;2023-02-03T02:35:05;102001.09;;;10.38;100.00
9419;BME280;4748;50.802;7.132;2023-02-03T02:37:58;101996.78;;;10.37;100.00
9419;BME280;4748;50.802;7.132;2023-02-03T02:40:55;101985.41;;;10.35;100.00
9419;BME280;4748;50.802;7.132;2023-02-03T02:43:28;101978.22;;;10.35;100.00
9419;BME280;4748;50.802;7.132;2023-02-03T02:46:02;101972.88;;;10.35;100.00
9419;BME280;4748;50.802;7.132;2023-02-03T02:48:39;101958.44;;;10.36;100.00
9419;BME280;4748;50.802;7.132;2023-02-03T02:51:08;101960.50;;;10.34;100.00
9419;BME280;4748;50.802;7.132;2023-02-03T02:53:39;101945.63;;;10.32;100.00
9419;BME280;4748;50.802;7.132;2023-02-03T02:56:08;101959.22;;;10.30;100.00
9419;BME280;4748;50.802;7.132;2023-02-03T02:58:36;101958.84;;;10.33;100.00
9419;BME280;4748;50.802;7.132;2023-02-03T03:01:04;101954.28;;;10.34;100.00
9419;BME280;4748;50.802;7.132;2023-02-03T03:03:31;101960.03;;;10.31;100.00
9419;BME280;4748;50.802;7.132;2023-02-03T03:06:07;101945.44;;;10.33;100.00
9419;BME280;4748;50.802;7.132;2023-02-03T03:11:18;101959.66;;;10.34;100.00
9419;BME280;4748;50.802;7.132;2023-02-03T03:13:47;101967.41;;;10.29;100.00
9419;BME280;4748;50.802;7.132;2023-02-03T03:16:15;101968.25;;;10.29;100.00
9419;BME280;4748;50.802;7.132;2023-02-03T03:19:06;101957.34;;;10.31;100.00
9419;BME280;4748;50.802;7.132;2023-02-03T03:21:38;101953.84;;;10.30;100.00
9419;BME280;4748;50.802;7.132;2023-02-03T03:24:09;101960.88;;;10.31;100.00
9419;BME280;4748;50.802;7.132;2023-02-03T03:26:52;101964.19;;;10.33;100.00
9419;BME280;4748;50.802;7.132;2023-02-03T03:32:03;101945.63;;;10.32;100.00
9419;BME280;4748;50.802;7.132;2023-02-03T03:34:29;101951.00;;;10.32;100.00
9419;BME280;4748;50.802;7.132;2023-02-03T03:37:02;101955.72;;;10.30;100.00
9419;BME280;4748;50.802;7.132;2023-02-03T03:39:44;101954.66;;;10.31;100.00
9419;BME280;4748;50.802;7.132;2023-02-03T03:42:21;101956.81;;;10.35;100.00
9419;BME280;4748;50.802;7.132;2023-02-03T03:44:58;101965.00;;;10.34;100.00
9419;BME280;4748;50.802;7.132;2023-02-03T03:47:33;101964.19;;;10.33;100.00
9419;BME280;4748;50.802;7.132;2023-02-03T03:50:01;101974.06;;;10.33;100.00
9419;BME280;4748;50.802;7.132;2023-02-03T03:52:31;101964.00;;;10.35;100.00
9419;BME280;4748;50.802;7.132;2023-02-03T03:55:00;101967.53;;;10.35;100.00
9419;BME280;4748;50.802;7.132;2023-02-03T03:57:38;101966.66;;;10.35;100.00
9419;BME280;4748;50.802;7.132;2023-02-03T04:00:08;101962.16;;;10.35;100.00
9419;BME280;4748;50.802;7.132;2023-02-03T04:02:35;101966.03;;;10.33;100.00
9419;BME280;4748;50.802;7.132;2023-02-03T04:05:03;101972.88;;;10.35;100.00
9419;BME280;4748;50.802;7.132;2023-02-03T04:07:44;101966.66;;;10.35;100.00
9419;BME280;4748;50.802;7.132;2023-02-03T04:12:41;101957.63;;;10.36;100.00
9419;BME280;4748;50.802;7.132;2023-02-03T04:15:06;101954.97;;;10.36;100.00
9419;BME280;4748;50.802;7.132;2023-02-03T04:17:32;101968.06;;;10.31;100.00
9419;BME280;4748;50.802;7.132;2023-02-03T04:20:00;101967.88;;;10.32;100.00
9419;BME280;4748;50.802;7.132;2023-02-03T04:22:25;101946.25;;;10.34;100.00
9419;BME280;4748;50.802;7.132;2023-02-03T04:24:51;101945.00;;;10.30;100.00
9419;BME280;4748;50.802;7.132;2023-02-03T04:27:16;101936.97;;;10.30;100.00
9419;BME280;4748;50.802;7.132;2023-02-03T04:29:41;101926.91;;;10.32;100.00
9419;BME280;4748;50.802;7.132;2023-02-03T04:32:06;101919.25;;;10.29;100.00
9419;BME280;4748;50.802;7.132;2023-02-03T04:34:32;101926.28;;;10.30;100.00
9419;BME280;4748;50.802;7.132;2023-02-03T04:36:57;101938.63;;;10.31;100.00
9419;BME280;4748;50.802;7.132;2023-02-03T04:39:22;101938.63;;;10.31;100.00
9419;BME280;4748;50.802;7.132;2023-02-03T04:41:48;101951.00;;;10.32;100.00
9419;BME280;4748;50.802;7.132;2023-02-03T04:44:13;101942.31;;;10.30;100.00
9419;BME280;4748;50.802;7.132;2023-02-03T04:46:38;101940.28;;;10.32;100.00
9419;BME280;4748;50.802;7.132;2023-02-03T04:49:04;101930.59;;;10.31;100.00
9419;BME280;4748;50.802;7.132;2023-02-03T04:51:29;101938.63;;;10.31;100.00
9419;BME280;4748;50.802;7.132;2023-02-03T04:53:54;101933.06;;;10.32;100.00
9419;BME280;4748;50.802;7.132;2023-02-03T04:56:20;101936.78;;;10.31;100.00
9419;BME280;4748;50.802;7.132;2023-02-03T04:58:45;101940.66;;;10.29;100.00
9419;BME280;4748;50.802;7.132;2023-02-03T05:01:10;101948.50;;;10.30;100.00
9419;BME280;4748;50.802;7.132;2023-02-03T05:03:36;101934.94;;;10.32;100.00
9419;BME280;4748;50.802;7.132;2023-02-03T05:06:01;101948.69;;;10.29;100.00
9419;BME280;4748;50.802;7.132;2023-02-03T05:08:27;101949.31;;;10.31;100.00
9419;BME280;4748;50.802;7.132;2023-02-03T05:10:53;101950.34;;;10.30;100.00
9419;BME280;4748;50.802;7.132;2023-02-03T05:13:18;101942.13;;;10.31;100.00
9419;BME280;4748;50.802;7.132;2023-02-03T05:15:43;101943.59;;;10.34;100.00
9419;BME280;4748;50.802;7.132;2023-02-03T05:18:09;101946.25;;;10.34;100.00
9419;BME280;4748;50.802;7.132;2023-02-03T05:20:34;101940.75;;;10.35;100.00
9419;BME280;4748;50.802;7.132;2023-02-03T05:22:59;101945.06;;;10.36;100.00
9419;BME280;4748;50.802;7.132;2023-02-03T05:25:25;101948.13;;;10.33;100.00
9419;BME280;4748;50.802;7.132;2023-02-03T05:27:51;101958.00;;;10.33;100.00
9419;BME280;4748;50.802;7.132;2023-02-03T05:30:16;101949.78;;;10.34;100.00
9419;BME280;4748;50.802;7.132;2023-02-03T05:32:41;101948.94;;;10.34;100.00
9419;BME280;4748;50.802;7.132;2023-02-03T05:35:07;101934.56;;;10.35;100.00
9419;BME280;4748;50.802;7.132;2023-02-03T05:37:32;101934.56;;;10.35;100.00
9419;BME280;4748;50.802;7.132;2023-02-03T05:39:58;101942.59;;;10.35;100.00
9419;BME280;4748;50.802;7.132;2023-02-03T05:42:49;101948.59;;;10.37;100.00
9419;BME280;4748;50.802;7.132;2023-02-03T05:45:15;101945.91;;;10.37;100.00
9419;BME280;4748;50.802;7.132;2023-02-03T05:47:41;101942.88;;;10.40;100.00
9419;BME280;4748;50.802;7.132;2023-02-03T05:50:07;101935.22;;;10.37;100.00
9419;BME280;4748;50.802;7.132;2023-02-03T05:52:32;101936.03;;;10.37;100.00
9419;BME280;4748;50.802;7.132;2023-02-03T05:54:57;101934.84;;;10.40;100.00
9419;BME280;4748;50.802;7.132;2023-02-03T05:57:23;101927.38;;;10.35;100.00
9419;BME280;4748;50.802;7.132;2023-02-03T05:59:48;101923.22;;;10.33;100.00
9419;BME280;4748;50.802;7.132;2023-02-03T06:02:14;101932.88;;;10.34;100.00
9419;BME280;4748;50.802;7.132;2023-02-03T06:04:39;101929.84;;;10.37;100.00
9419;BME280;4748;50.802;7.132;2023-02-03T06:07:05;101915.81;;;10.35;100.00
9419;BME280;4748;50.802;7.132;2023-02-03T06:09:31;101929.19;;;10.35;100.00
9419;BME280;4748;50.802;7.132;2023-02-03T06:11:56;101929.00;;;10.36;100.00
9419;BME280;4748;50.802;7.132;2023-02-03T06:14:22;101935.03;;;10.38;100.00
9419;BME280;4748;50.802;7.132;2023-02-03T06:16:47;101935.03;;;10.38;100.00
9419;BME280;4748;50.802;7.132;2023-02-03T06:19:12;101946.13;;;10.35;100.00
9419;BME280;4748;50.802;7.132;2023-02-03T06:21:38;101947.38;;;10.39;100.00
9419;BME280;4748;50.802;7.132;2023-02-03T06:24:03;101941.00;;;10.40;100.00
9419;BME280;4748;50.802;7.132;2023-02-03T06:26:29;101939.53;;;10.38;100.00
9419;BME280;4748;50.802;7.132;2023-02-03T06:28:54;101944.88;;;10.38;100.00
9419;BME280;4748;50.802;7.132;2023-02-03T06:31:19;101951.09;;;10.38;100.00
9419;BME280;4748;50.802;7.132;2023-02-03T06:33:45;101949.03;;;10.40;100.00
9419;BME280;4748;50.802;7.132;2023-02-03T06:36:10;101949.97;;;10.47;100.00
9419;BME280;4748;50.802;7.132;2023-02-03T06:38:35;101928.91;;;10.44;100.00
9419;BME280;4748;50.802;7.132;2023-02-03T06:41:01;101941.63;;;10.42;100.00
9419;BME280;4748;50.802;7.132;2023-02-03T06:43:26;101954.22;;;10.42;100.00
9419;BME280;4748;50.802;7.132;2023-02-03T06:45:52;101953.56;;;10.40;100.00
9419;BME280;4748;50.802;7.132;2023-02-03T06:48:17;101958.19;;;10.46;100.00
9419;BME280;4748;50.802;7.132;2023-02-03T06:50:43;101972.13;;;10.41;100.00
9419;BME280;4748;50.802;7.132;2023-02-03T06:53:09;101977.94;;;10.45;100.00
9419;BME280;4748;50.802;7.132;2023-02-03T06:55:34;101961.47;;;10.48;100.00
9419;BME280;4748;50.802;7.132;2023-02-03T06:57:59;101963.72;;;10.44;100.00
9419;BME280;4748;50.802;7.132;2023-02-03T07:00:25;101954.50;;;10.47;100.00
9419;BME280;4748;50.802;7.132;2023-02-03T07:02:55;101954.50;;;10.47;100.00
9419;BME280;4748;50.802;7.132;2023-02-03T07:05:22;101949.03;;;10.40;100.00
9419;BME280;4748;50.802;7.132;2023-02-03T07:07:47;101953.44;;;10.48;100.00
9419;BME280;4748;50.802;7.132;2023-02-03T07:10:13;101954.03;;;10.43;100.00
9419;BME280;4748;50.802;7.132;2023-02-03T07:12:38;101945.59;;;10.46;100.00
9419;BME280;4748;50.802;7.132;2023-02-03T07:15:04;101933.06;;;10.47;100.00
9419;BME280;4748;50.802;7.132;2023-02-03T07:17:30;101950.16;;;10.46;100.00
9419;BME280;4748;50.802;7.132;2023-02-03T07:19:55;101947.00;;;10.42;100.00
9419;BME280;4748;50.802;7.132;2023-02-03T07:22:21;101947.47;;;10.46;100.00
9419;BME280;4748;50.802;7.132;2023-02-03T07:24:46;101956.50;;;10.45;100.00
9419;BME280;4748;50.802;7.132;2023-02-03T07:27:11;101950.78;;;10.48;100.00
9419;BME280;4748;50.802;7.132;2023-02-03T07:29:37;101946.91;;;10.50;100.00
9419;BME280;4748;50.802;7.132;2023-02-03T07:32:02;101942.56;;;10.49;100.00
9419;BME280;4748;50.802;7.132;2023-02-03T07:34:28;101942.84;;;10.54;100.00
9419;BME280;4748;50.802;7.132;2023-02-03T07:36:53;101942.38;;;10.51;100.00
9419;BME280;4748;50.802;7.132;2023-02-03T07:39:19;101949.38;;;10.52;100.00
9419;BME280;4748;50.802;7.132;2023-02-03T07:41:44;101954.75;;;10.52;100.00
9419;BME280;4748;50.802;7.132;2023-02-03T07:44:10;101966.09;;;10.54;100.00
9419;BME280;4748;50.802;7.132;2023-02-03T07:46:35;101973.28;;;10.53;100.00
9419;BME280;4748;50.802;7.132;2023-02-03T07:49:04;101968.75;;;10.54;100.00
9419;BME280;4748;50.802;7.132;2023-02-03T07:51:30;101964.69;;;10.58;100.00
9419;BME280;4748;50.802;7.132;2023-02-03T07:53:55;101967.38;;;10.58;100.00
9419;BME280;4748;50.802;7.132;2023-02-03T07:56:21;101949.94;;;10.62;100.00
9419;BME280;4748;50.802;7.132;2023-02-03T07:58:46;101949.53;;;10.65;100.00
9419;BME280;4748;50.802;7.132;2023-02-03T08:01:14;101960.63;;;10.62;100.00
9419;BME280;4748;50.802;7.132;2023-02-03T08:03:40;101976.50;;;10.63;100.00
9419;BME280;4748;50.802;7.132;2023-02-03T08:06:06;101979.84;;;10.65;100.00
9419;BME280;4748;50.802;7.132;2023-02-03T08:08:31;101985.22;;;10.65;100.00
9419;BME280;4748;50.802;7.132;2023-02-03T08:10:57;101995.16;;;10.71;100.00
9419;BME280;4748;50.802;7.132;2023-02-03T08:13:22;101977.63;;;10.68;100.00
9419;BME280;4748;50.802;7.132;2023-02-03T08:15:47;101982.59;;;10.71;100.00
9419;BME280;4748;50.802;7.132;2023-02-03T08:18:13;101987.75;;;10.73;100.00
9419;BME280;4748;50.802;7.132;2023-02-03T08:20:39;101983.69;;;10.77;100.00
9419;BME280;4748;50.802;7.132;2023-02-03T08:23:04;101978.34;;;10.77;100.00
9419;BME280;4748;50.802;7.132;2023-02-03T08:25:30;101979.81;;;10.79;100.00
9419;BME280;4748;50.802;7.132;2023-02-03T08:27:55;101982.94;;;10.83;100.00
9419;BME280;4748;50.802;7.132;2023-02-03T08:30:21;101972.69;;;10.86;100.00
9419;BME280;4748;50.802;7.132;2023-02-03T08:32:46;101969.53;;;10.83;100.00
9419;BME280;4748;50.802;7.132;2023-02-03T08:35:11;101980.72;;;10.86;100.00
9419;BME280;4748;50.802;7.132;2023-02-03T08:37:37;101981.53;;;10.87;100.00
9419;BME280;4748;50.802;7.132;2023-02-03T08:40:03;101985.03;;;10.87;100.00
9419;BME280;4748;50.802;7.132;2023-02-03T08:42:29;101990.41;;;10.87;100.00
9419;BME280;4748;50.802;7.132;2023-02-03T08:44:54;101993.94;;;10.88;100.00
9419;BME280;4748;50.802;7.132;2023-02-03T08:47:20;101995.75;;;10.87;100.00
9419;BME280;4748;50.802;7.132;2023-02-03T08:49:45;101993.75;;;10.89;100.00
9419;BME280;4748;50.802;7.132;2023-02-03T08:52:11;101988.00;;;10.92;100.00
9419;BME280;4748;50.802;7.132;2023-02-03T08:54:38;102000.34;;;10.93;100.00
9419;BME280;4748;50.802;7.132;2023-02-03T08:57:04;102000.53;;;10.92;100.00
9419;BME280;4748;50.802;7.132;2023-02-03T08:59:29;102012.13;;;10.92;100.00
9419;BME280;4748;50.802;7.132;2023-02-03T09:01:55;101998.72;;;10.92;100.00
9419;BME280;4748;50.802;7.132;2023-02-03T09:04:21;101995.84;;;10.94;100.00
9419;BME280;4748;50.802;7.132;2023-02-03T09:06:52;101998.72;;;10.92;100.00
9419;BME280;4748;50.802;7.132;2023-02-03T09:09:22;101993.97;;;10.94;100.00
9419;BME280;4748;50.802;7.132;2023-02-03T09:11:47;101989.81;;;10.92;100.00
9419;BME280;4748;50.802;7.132;2023-02-03T09:14:13;102003.59;;;10.89;100.00
9419;BME280;4748;50.802;7.132;2023-02-03T09:16:40;101998.25;;;10.89;100.00
9419;BME280;4748;50.802;7.132;2023-02-03T09:19:05;101995.19;;;10.92;100.00
9419;BME280;4748;50.802;7.132;2023-02-03T09:21:31;101986.53;;;10.90;100.00
9419;BME280;4748;50.802;7.132;2023-02-03T09:23:59;101999.72;;;10.91;100.00
9419;BME280;4748;50.802;7.132;2023-02-03T09:26:25;102001.59;;;10.91;100.00
9419;BME280;4748;50.802;7.132;2023-02-03T09:28:51;101999.09;;;10.89;100.00
9419;BME280;4748;50.802;7.132;2023-02-03T09:31:16;102014.06;;;10.84;100.00
9419;BME280;4748;50.802;7.132;2023-02-03T09:33:42;101971.25;;;10.90;100.00
9419;BME280;4748;50.802;7.132;2023-02-03T09:36:08;101989.59;;;10.87;100.00
9419;BME280;4748;50.802;7.132;2023-02-03T09:38:34;101981.53;;;10.87;100.00
9419;BME280;4748;50.802;7.132;2023-02-03T09:41:06;101979.88;;;10.86;100.00
9419;BME280;4748;50.802;7.132;2023-02-03T09:43:44;101988.75;;;10.86;100.00
9419;BME280;4748;50.802;7.132;2023-02-03T09:46:20;101983.41;;;10.86;100.00
9419;BME280;4748;50.802;7.132;2023-02-03T09:48:50;101977.38;;;10.84;100.00
9419;BME280;4748;50.802;7.132;2023-02-03T09:51:33;101972.31;;;10.89;100.00
9419;BME280;4748;50.802;7.132;2023-02-03T09:54:06;101976.25;;;10.93;100.00
9419;BME280;4748;50.802;7.132;2023-02-03T09:56:38;101965.81;;;10.98;100.00
9419;BME280;4748;50.802;7.132;2023-02-03T09:59:05;101971.94;;;10.92;100.00
9419;BME280;4748;50.802;7.132;2023-02-03T10:01:40;101970.44;;;10.90;100.00
9419;BME280;4748;50.802;7.132;2023-02-03T10:04:24;101971.25;;;10.90;100.00
9419;BME280;4748;50.802;7.132;2023-02-03T10:07:02;101983.28;;;10.94;100.00
9419;BME280;4748;50.802;7.132;2023-02-03T10:12:57;101976.31;;;11.00;100.00
9419;BME280;4748;50.802;7.132;2023-02-03T10:18:13;101990.88;;;10.91;100.00
9419;BME280;4748;50.802;7.132;2023-02-03T10:20:46;101994.19;;;10.93;100.00
9419;BME280;4748;50.802;7.132;2023-02-03T10:23:32;102020.72;;;10.88;100.00
9419;BME280;4748;50.802;7.132;2023-02-03T10:26:01;102023.31;;;10.81;100.00
9419;BME280;4748;50.802;7.132;2023-02-03T10:28:37;102014.81;;;10.78;100.00
9419;BME280;4748;50.802;7.132;2023-02-03T10:31:17;102022.00;;;10.77;100.00
9419;BME280;4748;50.802;7.132;2023-02-03T10:33:43;102044.28;;;10.78;100.00
9419;BME280;4748;50.802;7.132;2023-02-03T10:36:20;102037.72;;;10.80;100.00
9419;BME280;4748;50.802;7.132;2023-02-03T10:41:28;102026.38;;;10.78;100.00
9419;BME280;4748;50.802;7.132;2023-02-03T10:43:54;102022.75;;;10.71;100.00
9419;BME280;4748;50.802;7.132;2023-02-03T10:46:29;102007.50;;;10.72;100.00
9419;BME280;4748;50.802;7.132;2023-02-03T10:48:56;102012.34;;;10.76;100.00
9419;BME280;4748;50.802;7.132;2023-02-03T10:51:26;102000.22;;;10.80;100.00
9419;BME280;4748;50.802;7.132;2023-02-03T10:53:54;102012.41;;;10.83;100.00
9419;BME280;4748;50.802;7.132;2023-02-03T10:56:30;102005.84;;;10.85;100.00
9419;BME280;4748;50.802;7.132;2023-02-03T10:58:58;101993.06;;;10.87;100.00
9419;BME280;4748;50.802;7.132;2023-02-03T11:01:27;101997.03;;;10.91;100.00
9419;BME280;4748;50.802;7.132;2023-02-03T11:06:18;101989.91;;;10.98;100.00
9419;BME280;4748;50.802;7.132;2023-02-03T11:08:45;101996.09;;;10.99;100.00
9419;BME280;4748;50.802;7.132;2023-02-03T11:13:45;101987.06;;;11.20;100.00
9419;BME280;4748;50.802;7.132;2023-02-03T11:16:14;102001.22;;;11.15;100.00
9419;BME280;4748;50.802;7.132;2023-02-03T11:18:59;101993.56;;;11.12;100.00
9419;BME280;4748;50.802;7.132;2023-02-03T11:21:42;101989.03;;;11.12;100.00
9419;BME280;4748;50.802;7.132;2023-02-03T11:24:24;101983.28;;;11.15;100.00
9419;BME280;4748;50.802;7.132;2023-02-03T11:29:32;101978.75;;;11.16;100.00
9419;BME280;4748;50.802;7.132;2023-02-03T11:32:01;101978.94;;;11.14;100.00
9419;BME280;4748;50.802;7.132;2023-02-03T11:34:30;101980.81;;;11.14;100.00
9419;BME280;4748;50.802;7.132;2023-02-03T11:37:54;101983.28;;;11.15;100.00
9419;BME280;4748;50.802;7.132;2023-02-03T11:40:40;101972.56;;;11.15;100.00
9419;BME280;4748;50.802;7.132;2023-02-03T11:42:45;101964.72;;;11.14;100.00
9419;BME280;4748;50.802;7.132;2023-02-03T11:48:05;101970.28;;;11.12;100.00
9419;BME280;4748;50.802;7.132;2023-02-03T12:04:37;101987.13;;;11.06;100.00
9419;BME280;4748;50.802;7.132;2023-02-03T12:07:21;101985.72;;;11.10;100.00
9419;BME280;4748;50.802;7.132;2023-02-03T12:15:26;101976.41;;;11.06;100.00
9419;BME280;4748;50.802;7.132;2023-02-03T12:18:22;101984.88;;;11.10;100.00
9419;BME280;4748;50.802;7.132;2023-02-03T12:24:03;101986.09;;;11.07;100.00
9419;BME280;4748;50.802;7.132;2023-02-03T12:26:43;101983.59;;;11.06;100.00
9419;BME280;4748;50.802;7.132;2023-02-03T12:29:19;101980.09;;;11.05;100.00
9419;BME280;4748;50.802;7.132;2023-02-03T12:31:51;101981.31;;;11.03;100.00
9419;BME280;4748;50.802;7.132;2023-02-03T12:34:32;101983.97;;;11.03;100.00
9419;BME280;4748;50.802;7.132;2023-02-03T12:37:21;101964.59;;;11.01;100.00
9419;BME280;4748;50.802;7.132;2023-02-03T12:39:53;101975.31;;;11.01;100.00
9419;BME280;4748;50.802;7.132;2023-02-03T12:42:30;101977.41;;;11.05;100.00
9419;BME280;4748;50.802;7.132;2023-02-03T12:45:01;101970.41;;;11.04;100.00
9419;BME280;4748;50.802;7.132;2023-02-03T12:47:31;101965.03;;;11.04;100.00
9419;BME280;4748;50.802;7.132;2023-02-03T12:50:15;101959.28;;;11.07;100.00
9419;BME280;4748;50.802;7.132;2023-02-03T12:52:50;101973.47;;;11.01;100.00
9419;BME280;4748;50.802;7.132;2023-02-03T12:55:38;101986.84;;;11.01;100.00
9419;BME280;4748;50.802;7.132;2023-02-03T12:58:17;101987.94;;;11.07;100.00
9419;BME280;4748;50.802;7.132;2023-02-03T13:00:55;101976.56;;;11.05;100.00
9419;BME280;4748;50.802;7.132;2023-02-03T13:06:26;101958.91;;;11.10;100.00
9419;BME280;4748;50.802;7.132;2023-02-03T13:09:04;101957.28;;;11.09;100.00
9419;BME280;4748;50.802;7.132;2023-02-03T13:12:10;101967.53;;;11.06;100.00
9419;BME280;4748;50.802;7.132;2023-02-03T13:14:48;101959.28;;;11.07;100.00
9419;BME280;4748;50.802;7.132;2023-02-03T13:17:29;101975.75;;;11.04;100.00
9419;BME280;4748;50.802;7.132;2023-02-03T13:20:03;101983.69;;;11.12;100.00
9419;BME280;4748;50.802;7.132;2023-02-03T13:22:28;101986.09;;;11.07;100.00
9419;BME280;4748;50.802;7.132;2023-02-03T13:27:41;101978.72;;;11.09;100.00
9419;BME280;4748;50.802;7.132;2023-02-03T13:30:31;101970.47;;;11.11;100.00
9419;BME280;4748;50.802;7.132;2023-02-03T13:35:31;101963.94;;;10.99;100.00
9419;BME280;4748;50.802;7.132;2023-02-03T13:40:54;101968.00;;;10.95;100.00
9419;BME280;4748;50.802;7.132;2023-02-03T13:43:33;101963.50;;;10.95;100.00
9419;BME280;4748;50.802;7.132;2023-02-03T13:46:00;101963.31;;;10.97;100.00
9419;BME280;4748;50.802;7.132;2023-02-03T13:48:28;101970.69;;;10.95;100.00
9419;BME280;4748;50.802;7.132;2023-02-03T13:51:16;101970.88;;;10.93;100.00
9419;BME280;4748;50.802;7.132;2023-02-03T13:53:44;101959.44;;;10.85;100.00
9419;BME280;4748;50.802;7.132;2023-02-03T13:56:22;101956.53;;;10.80;100.00
9419;BME280;4748;50.802;7.132;2023-02-03T14:03:52;101965.56;;;10.79;100.00
9419;BME280;4748;50.802;7.132;2023-02-03T14:09:18;101961.78;;;10.73;100.00
9419;BME280;4748;50.802;7.132;2023-02-03T14:11:44;101967.91;;;10.68;100.00
9419;BME280;4748;50.802;7.132;2023-02-03T14:19:16;101965.38;;;10.60;100.00
9419;BME280;4748;50.802;7.132;2023-02-03T14:22:08;101961.19;;;10.57;100.00
9419;BME280;4748;50.802;7.132;2023-02-03T14:24:43;101957.13;;;10.61;100.00
9419;BME280;4748;50.802;7.132;2023-02-03T14:27:25;101952.97;;;10.59;100.00
9419;BME280;4748;50.802;7.132;2023-02-03T14:30:06;101973.09;;;10.55;100.00
9419;BME280;4748;50.802;7.132;2023-02-03T14:32:53;101981.34;;;10.53;100.00
9419;BME280;4748;50.802;7.132;2023-02-03T14:35:31;101975.97;;;10.53;100.00
9419;BME280;4748;50.802;7.132;2023-02-03T14:38:05;101960.72;;;10.54;100.00